createdAt,value
2023-03-17T00:02:16.581Z,7.00
2023-03-17T00:05:04.149Z,7.10
2023-03-17T00:07:51.948Z,7.10
2023-03-17T00:10:39.059Z,7.20
2023-03-17T00:13:26.213Z,7.20
2023-03-17T00:16:17.626Z,7.20
2023-03-17T00:19:06.087Z,7.20
2023-03-17T00:21:53.231Z,7.20
2023-03-17T00:24:39.458Z,7.30
2023-03-17T00:27:26.036Z,7.30
2023-03-17T00:30:14.167Z,7.30
2023-03-17T00:33:01.373Z,7.30
2023-03-17T00:35:49.832Z,7.30
2023-03-17T00:38:37.436Z,7.40
2023-03-17T00:41:24.273Z,7.50
2023-03-17T00:44:11.730Z,7.60
2023-03-17T00:46:58.589Z,7.70
2023-03-17T00:49:48.302Z,7.70
2023-03-17T00:52:36.332Z,7.70
2023-03-17T00:55:23.091Z,7.60
2023-03-17T00:58:16.151Z,7.60
2023-03-17T01:01:02.969Z,7.60
2023-03-17T01:03:49.778Z,7.50
2023-03-17T01:06:36.210Z,7.50
2023-03-17T01:09:28.133Z,7.50
2023-03-17T01:12:15.151Z,7.40
2023-03-17T01:15:01.802Z,7.50
2023-03-17T01:17:50.392Z,7.40
2023-03-17T01:20:36.788Z,7.30
2023-03-17T01:23:23.710Z,7.30
2023-03-17T01:26:11.754Z,7.40
2023-03-17T01:28:58.896Z,7.40
2023-03-17T01:31:46.231Z,7.40
2023-03-17T01:34:32.845Z,7.40
2023-03-17T01:37:21.285Z,7.40
2023-03-17T01:40:10.281Z,7.30
2023-03-17T01:43:14.537Z,7.20
2023-03-17T01:46:20.677Z,7.20
2023-03-17T01:49:14.433Z,7.10
2023-03-17T01:52:07.563Z,7.00
2023-03-17T01:54:57.537Z,7.10
2023-03-17T01:57:50.703Z,6.90
2023-03-17T02:00:40.035Z,6.70
2023-03-17T02:03:28.019Z,6.60
2023-03-17T02:06:14.502Z,6.50
2023-03-17T02:09:01.713Z,6.60
2023-03-17T02:11:49.141Z,6.80
2023-03-17T02:14:36.682Z,6.90
2023-03-17T02:17:28.458Z,7.00
2023-03-17T02:20:48.499Z,7.10
2023-03-17T02:23:36.797Z,7.30
2023-03-17T02:26:27.778Z,7.50
2023-03-17T02:29:14.771Z,7.50
2023-03-17T02:32:01.412Z,7.40
2023-03-17T02:34:50.970Z,7.30
2023-03-17T02:37:38.518Z,7.20
2023-03-17T02:40:27.463Z,7.10
2023-03-17T02:43:14.179Z,6.80
2023-03-17T02:46:01.267Z,6.80
2023-03-17T02:48:48.434Z,6.60
2023-03-17T02:51:34.906Z,6.50
2023-03-17T02:54:21.579Z,6.40
2023-03-17T02:57:10.268Z,6.50
2023-03-17T02:59:56.527Z,6.70
2023-03-17T03:02:43.327Z,6.80
2023-03-17T03:05:29.954Z,6.90
2023-03-17T03:08:16.482Z,6.90
2023-03-17T03:11:04.869Z,6.80
2023-03-17T03:13:53.019Z,6.70
2023-03-17T03:16:40.307Z,6.60
2023-03-17T03:19:26.872Z,6.50
2023-03-17T03:22:13.278Z,6.40
2023-03-17T03:25:00.309Z,6.60
2023-03-17T03:27:47.100Z,6.70
2023-03-17T03:30:35.650Z,6.80
2023-03-17T03:33:22.190Z,6.80
2023-03-17T03:36:09.800Z,6.90
2023-03-17T03:38:56.477Z,6.80
2023-03-17T03:41:44.769Z,6.80
2023-03-17T03:44:31.843Z,6.80
2023-03-17T03:47:19.469Z,6.70
2023-03-17T03:50:07.187Z,6.60
2023-03-17T03:52:54.039Z,6.70
2023-03-17T03:55:40.762Z,6.70
2023-03-17T03:58:27.491Z,6.70
2023-03-17T04:01:14.614Z,6.60
2023-03-17T04:04:03.031Z,6.40
2023-03-17T04:06:49.619Z,6.30
2023-03-17T04:09:37.177Z,6.20
2023-03-17T04:12:23.694Z,6.20
2023-03-17T04:15:15.324Z,6.10
2023-03-17T04:18:02.615Z,5.80
2023-03-17T04:20:50.904Z,5.60
2023-03-17T04:23:37.443Z,5.80
2023-03-17T04:26:24.267Z,5.90
2023-03-17T04:29:15.539Z,5.80
2023-03-17T04:32:02.275Z,6.00
2023-03-17T04:34:48.892Z,6.00
2023-03-17T04:37:36.734Z,5.90
2023-03-17T04:40:23.335Z,5.90
2023-03-17T04:43:10.343Z,5.80
2023-03-17T04:45:57.354Z,5.80
2023-03-17T04:48:44.259Z,5.50
2023-03-17T04:51:31.802Z,5.20
2023-03-17T04:54:20.172Z,5.20
2023-03-17T04:57:06.817Z,5.10
2023-03-17T04:59:53.346Z,4.80
2023-03-17T05:02:40.009Z,4.60
2023-03-17T05:05:26.440Z,4.50
2023-03-17T05:08:12.814Z,4.50
2023-03-17T05:11:01.559Z,4.50
2023-03-17T05:13:47.967Z,4.50
2023-03-17T05:16:34.299Z,4.60
2023-03-17T05:19:21.311Z,4.70
2023-03-17T05:22:07.695Z,4.60
2023-03-17T05:24:53.953Z,4.40
2023-03-17T05:27:41.612Z,4.50
2023-03-17T05:30:28.474Z,4.50
2023-03-17T05:33:16.367Z,4.60
2023-03-17T05:36:03.538Z,4.20
2023-03-17T05:38:50.636Z,3.80
2023-03-17T05:41:37.186Z,3.60
2023-03-17T05:44:24.909Z,3.50
2023-03-17T05:47:11.358Z,3.70
2023-03-17T05:49:57.784Z,4.00
2023-03-17T05:52:44.180Z,4.30
2023-03-17T05:55:30.650Z,4.50
2023-03-17T05:58:17.333Z,4.70
2023-03-17T06:01:05.894Z,4.70
2023-03-17T06:03:53.058Z,4.80
2023-03-17T06:06:39.882Z,4.80
2023-03-17T06:09:26.845Z,4.90
2023-03-17T06:12:13.713Z,5.10
2023-03-17T06:15:00.238Z,5.00
2023-03-17T06:17:48.694Z,5.10
2023-03-17T06:20:36.558Z,5.30
2023-03-17T06:23:24.118Z,5.30
2023-03-17T06:26:11.009Z,5.20
2023-03-17T06:28:57.532Z,5.00
2023-03-17T06:31:50.354Z,4.90
2023-03-17T06:34:41.872Z,5.20
2023-03-17T06:37:28.424Z,5.70
2023-03-17T06:40:16.166Z,6.30
2023-03-17T06:43:02.965Z,7.10
2023-03-17T06:45:49.622Z,8.30
2023-03-17T06:48:36.324Z,8.20
2023-03-17T06:51:24.148Z,8.60
2023-03-17T06:54:10.676Z,7.90
2023-03-17T06:56:57.315Z,7.20
2023-03-17T06:59:43.787Z,6.90
2023-03-17T07:02:31.129Z,6.60
2023-03-17T07:05:18.599Z,6.60
2023-03-17T07:08:07.116Z,7.20
2023-03-17T07:10:55.882Z,7.30
2023-03-17T07:13:42.341Z,7.60
2023-03-17T07:16:29.656Z,8.00
2023-03-17T07:19:16.643Z,8.00
2023-03-17T07:22:03.138Z,8.30
2023-03-17T07:24:52.536Z,8.60
2023-03-17T07:27:39.001Z,8.80
2023-03-17T07:30:26.483Z,8.60
2023-03-17T07:33:13.419Z,8.70
2023-03-17T07:36:00.286Z,9.10
2023-03-17T07:38:47.173Z,9.20
2023-03-17T07:41:35.333Z,9.30
2023-03-17T07:44:22.597Z,9.30
2023-03-17T07:47:09.515Z,10.10
2023-03-17T07:49:55.987Z,10.70
2023-03-17T07:52:43.170Z,11.40
2023-03-17T07:55:30.736Z,12.30
2023-03-17T07:58:18.862Z,13.40
2023-03-17T08:01:06.076Z,14.40
2023-03-17T08:03:53.366Z,14.90
2023-03-17T08:06:41.651Z,14.90
2023-03-17T08:09:28.467Z,14.90
2023-03-17T08:12:15.889Z,15.20
2023-03-17T08:15:03.869Z,15.70
2023-03-17T08:17:50.504Z,15.80
2023-03-17T08:20:37.829Z,15.50
2023-03-17T08:23:25.436Z,15.20
2023-03-17T08:26:14.120Z,14.90
2023-03-17T08:29:01.290Z,14.90
2023-03-17T08:31:49.547Z,15.40
2023-03-17T08:34:36.271Z,16.10
2023-03-17T08:37:24.627Z,17.00
2023-03-17T08:40:13.283Z,17.30
2023-03-17T08:43:00.048Z,17.40
2023-03-17T08:45:46.808Z,17.60
2023-03-17T08:48:37.406Z,18.20
2023-03-17T08:51:25.576Z,18.30
2023-03-17T08:54:12.807Z,18.60
2023-03-17T08:57:01.717Z,19.20
2023-03-17T08:59:49.113Z,19.50
2023-03-17T09:02:35.511Z,19.70
2023-03-17T09:05:24.066Z,19.80
2023-03-17T09:08:11.952Z,20.40
2023-03-17T09:10:58.798Z,20.50
2023-03-17T09:13:46.458Z,20.60
2023-03-17T09:16:34.348Z,20.40
2023-03-17T09:19:21.721Z,19.70
2023-03-17T09:22:13.894Z,18.60
2023-03-17T09:25:00.589Z,18.00
2023-03-17T09:27:47.170Z,18.50
2023-03-17T09:30:33.920Z,17.70
2023-03-17T09:33:20.993Z,17.70
2023-03-17T09:36:08.629Z,18.20
2023-03-17T09:38:56.911Z,18.20
2023-03-17T09:41:57.175Z,18.90
2023-03-17T09:45:03.185Z,19.00
2023-03-17T09:48:09.928Z,19.20
2023-03-17T09:50:59.129Z,19.50
2023-03-17T09:53:52.752Z,19.20
2023-03-17T09:56:44.342Z,19.60
2023-03-17T09:59:33.737Z,20.30
2023-03-17T10:02:25.225Z,20.80
2023-03-17T10:05:20.545Z,20.70
2023-03-17T10:08:29.412Z,20.50
2023-03-17T10:11:25.921Z,20.50
2023-03-17T10:14:39.584Z,19.80
2023-03-17T10:17:32.677Z,19.20
2023-03-17T10:20:25.995Z,18.80
2023-03-17T10:23:16.482Z,18.20
2023-03-17T10:26:09.528Z,18.10
2023-03-17T10:28:57.055Z,18.20
2023-03-17T10:31:45.150Z,17.90
2023-03-17T10:34:35.402Z,18.00
2023-03-17T10:37:26.724Z,17.80
2023-03-17T10:40:23.431Z,17.80
2023-03-17T10:43:20.616Z,18.00
2023-03-17T10:46:18.892Z,18.00
2023-03-17T10:49:17.093Z,17.90
2023-03-17T10:52:08.544Z,17.70
2023-03-17T10:54:55.595Z,17.90
2023-03-17T10:57:52.379Z,17.90
2023-03-17T11:00:39.373Z,17.60
2023-03-17T11:03:29.133Z,17.70
2023-03-17T11:06:20.277Z,17.80
2023-03-17T11:09:10.980Z,18.00
2023-03-17T11:12:04.457Z,18.20
2023-03-17T11:14:51.479Z,18.10
2023-03-17T11:17:44.138Z,18.00
2023-03-17T11:20:48.650Z,18.20
2023-03-17T11:23:48.193Z,18.40
2023-03-17T11:26:56.446Z,18.40
2023-03-17T11:29:54.383Z,18.40
2023-03-17T11:32:46.384Z,18.30
2023-03-17T11:35:46.997Z,18.10
2023-03-17T11:38:38.950Z,18.10
2023-03-17T11:41:44.988Z,18.30
2023-03-17T11:45:10.803Z,18.40
2023-03-17T11:48:11.788Z,18.70
2023-03-17T11:51:04.573Z,18.60
2023-03-17T11:54:07.989Z,18.60
2023-03-17T11:56:59.818Z,18.60
2023-03-17T11:59:52.073Z,18.70
2023-03-17T12:02:42.500Z,18.90
2023-03-17T12:05:31.622Z,18.70
2023-03-17T12:08:25.387Z,18.40
2023-03-17T12:11:15.389Z,18.60
2023-03-17T12:14:07.289Z,18.60
2023-03-17T12:16:59.518Z,18.60
2023-03-17T12:20:00.713Z,18.30
2023-03-17T12:22:55.953Z,18.00
2023-03-17T12:25:52.827Z,17.90
2023-03-17T12:28:46.337Z,18.00
2023-03-17T12:31:37.170Z,18.10
2023-03-17T12:34:29.934Z,18.20
2023-03-17T12:37:18.156Z,18.30
2023-03-17T12:40:10.698Z,18.30
2023-03-17T12:43:10.494Z,18.40
2023-03-17T12:46:14.314Z,18.40
2023-03-17T12:49:31.119Z,18.40
2023-03-17T12:52:29.266Z,18.30
2023-03-17T12:55:18.576Z,18.40
2023-03-17T12:58:08.064Z,18.40
2023-03-17T13:01:02.612Z,18.40
2023-03-17T13:04:02.564Z,18.40
2023-03-17T13:06:58.773Z,18.70
2023-03-17T13:09:49.805Z,18.90
2023-03-17T13:13:00.295Z,19.30
2023-03-17T13:15:57.361Z,19.30
2023-03-17T13:18:50.060Z,19.00
2023-03-17T13:21:38.675Z,19.00
2023-03-17T13:24:48.059Z,18.90
2023-03-17T13:27:49.937Z,18.70
2023-03-17T13:30:55.271Z,18.50
2023-03-17T13:33:44.661Z,18.30
2023-03-17T13:36:57.791Z,18.40
2023-03-17T13:40:14.736Z,18.40
2023-03-17T13:43:16.976Z,18.40
2023-03-17T13:46:27.733Z,18.40
2023-03-17T13:49:25.548Z,18.40
2023-03-17T13:52:15.540Z,18.40
2023-03-17T13:55:25.720Z,18.40
2023-03-17T13:58:34.704Z,18.60
2023-03-17T14:01:23.693Z,18.60
2023-03-17T14:04:20.818Z,18.50
2023-03-17T14:07:17.059Z,18.40
2023-03-17T14:10:08.083Z,18.40
2023-03-17T14:13:01.921Z,18.40
2023-03-17T14:15:56.423Z,18.40
2023-03-17T14:18:47.402Z,18.40
2023-03-17T14:21:36.011Z,18.50
2023-03-17T14:24:24.905Z,18.50
2023-03-17T14:27:15.888Z,18.40
2023-03-17T14:30:17.006Z,18.30
2023-03-17T14:33:06.490Z,18.30
2023-03-17T14:35:56.918Z,18.30
2023-03-17T14:38:49.728Z,18.30
2023-03-17T14:41:36.527Z,18.20
2023-03-17T14:44:24.270Z,18.10
2023-03-17T14:47:17.734Z,18.00
2023-03-17T14:50:05.377Z,17.90
2023-03-17T14:52:52.147Z,18.00
2023-03-17T14:55:43.595Z,17.90
2023-03-17T14:58:33.171Z,17.90
2023-03-17T15:01:33.510Z,18.00
2023-03-17T15:04:22.824Z,17.90
2023-03-17T15:07:30.483Z,17.80
2023-03-17T15:10:19.263Z,17.70
2023-03-17T15:13:07.168Z,17.60
2023-03-17T15:15:53.797Z,17.40
2023-03-17T15:18:41.564Z,17.30
2023-03-17T15:21:35.491Z,17.40
2023-03-17T15:24:37.100Z,17.40
2023-03-17T15:27:23.780Z,17.50
2023-03-17T15:30:11.600Z,17.40
2023-03-17T15:33:00.908Z,17.20
2023-03-17T15:35:49.288Z,17.20
2023-03-17T15:38:38.873Z,17.10
2023-03-17T15:41:25.685Z,17.00
2023-03-17T15:44:12.358Z,16.80
2023-03-17T15:46:58.999Z,16.80
2023-03-17T15:49:46.500Z,16.70
2023-03-17T15:52:34.660Z,16.70
2023-03-17T15:55:23.497Z,16.70
2023-03-17T15:58:10.024Z,16.70
2023-03-17T16:00:59.833Z,16.60
2023-03-17T16:03:47.960Z,16.70
2023-03-17T16:06:36.053Z,16.60
2023-03-17T16:09:24.127Z,16.60
2023-03-17T16:12:12.838Z,16.70
2023-03-17T16:15:00.744Z,16.70
2023-03-17T16:17:49.888Z,16.60
2023-03-17T16:20:39.621Z,16.60
2023-03-17T16:23:28.722Z,16.40
2023-03-17T16:26:17.194Z,16.40
2023-03-17T16:29:07.153Z,16.20
2023-03-17T16:31:53.638Z,16.20
2023-03-17T16:34:40.541Z,16.10
2023-03-17T16:37:26.909Z,16.20
2023-03-17T16:40:21.996Z,16.20
2023-03-17T16:43:25.660Z,16.10
2023-03-17T16:46:13.376Z,16.00
2023-03-17T16:49:00.260Z,16.00
2023-03-17T16:51:48.205Z,15.90
2023-03-17T16:54:36.142Z,15.90
2023-03-17T16:57:22.426Z,15.90
2023-03-17T17:00:16.928Z,15.80
2023-03-17T17:03:03.710Z,15.70
2023-03-17T17:05:50.649Z,15.60
2023-03-17T17:08:37.096Z,15.50
2023-03-17T17:11:23.422Z,15.40
2023-03-17T17:14:09.809Z,15.40
2023-03-17T17:16:57.514Z,15.30
2023-03-17T17:19:44.225Z,15.30
2023-03-17T17:22:30.767Z,15.30
2023-03-17T17:25:17.520Z,15.20
2023-03-17T17:28:04.570Z,15.20
2023-03-17T17:30:52.572Z,15.10
2023-03-17T17:33:41.029Z,15.20
2023-03-17T17:36:28.097Z,14.90
2023-03-17T17:39:15.305Z,14.90
2023-03-17T17:42:02.113Z,14.80
2023-03-17T17:44:48.871Z,14.80
2023-03-17T17:47:35.934Z,14.80
2023-03-17T17:50:26.946Z,14.90
2023-03-17T17:53:14.736Z,14.80
2023-03-17T17:56:01.098Z,14.80
2023-03-17T17:58:47.529Z,14.90
2023-03-17T18:01:34.152Z,14.80
2023-03-17T18:04:21.328Z,14.70
2023-03-17T18:07:09.576Z,14.70
2023-03-17T18:09:56.657Z,14.60
2023-03-17T18:12:43.750Z,14.30
2023-03-17T18:15:30.605Z,14.20
2023-03-17T18:18:17.610Z,14.20
2023-03-17T18:21:04.571Z,14.00
2023-03-17T18:23:55.076Z,13.80
2023-03-17T18:26:42.549Z,13.80
2023-03-17T18:29:28.918Z,13.80
2023-03-17T18:32:15.820Z,13.80
2023-03-17T18:35:07.268Z,13.60
2023-03-17T18:37:53.822Z,13.40
2023-03-17T18:40:42.157Z,13.20
2023-03-17T18:43:28.685Z,13.00
2023-03-17T18:46:16.274Z,12.90
2023-03-17T18:49:02.977Z,12.60
2023-03-17T18:51:49.353Z,12.50
2023-03-17T18:54:35.742Z,12.50
2023-03-17T18:57:23.477Z,12.40
2023-03-17T19:00:11.896Z,12.30
2023-03-17T19:02:58.756Z,12.20
2023-03-17T19:05:45.234Z,12.10
2023-03-17T19:08:31.707Z,12.20
2023-03-17T19:11:20.892Z,12.20
2023-03-17T19:14:09.844Z,12.30
2023-03-17T19:16:56.836Z,12.30
2023-03-17T19:19:43.763Z,12.50
2023-03-17T19:22:30.378Z,12.40
2023-03-17T19:25:17.675Z,12.50
2023-03-17T19:28:05.376Z,12.40
2023-03-17T19:30:53.507Z,12.40
2023-03-17T19:33:40.516Z,12.40
2023-03-17T19:36:27.189Z,12.40
2023-03-17T19:39:14.513Z,12.40
2023-03-17T19:42:01.443Z,12.50
2023-03-17T19:44:48.063Z,12.60
2023-03-17T19:47:36.101Z,12.60
2023-03-17T19:50:22.815Z,12.70
2023-03-17T19:53:10.095Z,12.60
2023-03-17T19:55:57.682Z,12.30
2023-03-17T19:58:44.592Z,12.20
2023-03-17T20:01:32.034Z,12.10
2023-03-17T20:04:21.964Z,11.90
2023-03-17T20:07:08.734Z,11.70
2023-03-17T20:09:55.775Z,11.50
2023-03-17T20:12:43.372Z,11.40
2023-03-17T20:15:30.231Z,11.20
2023-03-17T20:18:17.024Z,11.10
2023-03-17T20:21:07.717Z,11.20
2023-03-17T20:23:54.547Z,11.30
2023-03-17T20:26:43.223Z,11.40
2023-03-17T20:29:31.018Z,11.30
2023-03-17T20:32:18.079Z,11.40
2023-03-17T20:35:07.433Z,11.40
2023-03-17T20:37:57.037Z,11.40
2023-03-17T20:40:44.203Z,11.50
2023-03-17T20:43:34.113Z,11.50
2023-03-17T20:46:23.629Z,11.30
2023-03-17T20:49:10.435Z,11.30
2023-03-17T20:51:57.367Z,11.40
2023-03-17T20:54:45.550Z,11.40
2023-03-17T20:57:32.644Z,11.40
2023-03-17T21:00:22.021Z,11.50
2023-03-17T21:03:09.750Z,11.30
2023-03-17T21:05:57.138Z,11.20
2023-03-17T21:08:44.093Z,11.00
2023-03-17T21:11:32.023Z,10.70
2023-03-17T21:14:18.439Z,10.40
2023-03-17T21:17:05.594Z,10.20
2023-03-17T21:19:51.906Z,9.90
2023-03-17T21:22:39.869Z,9.80
2023-03-17T21:25:26.808Z,9.90
2023-03-17T21:28:15.180Z,9.90
2023-03-17T21:31:02.909Z,9.90
2023-03-17T21:33:50.563Z,10.10
2023-03-17T21:36:37.470Z,10.20
2023-03-17T21:39:24.337Z,10.40
2023-03-17T21:42:12.186Z,10.40
2023-03-17T21:45:00.367Z,10.50
2023-03-17T21:47:47.275Z,10.50
2023-03-17T21:50:34.433Z,10.40
2023-03-17T21:53:21.386Z,10.30
2023-03-17T21:56:09.154Z,10.20
2023-03-17T21:58:57.762Z,10.20
2023-03-17T22:01:45.828Z,10.20
2023-03-17T22:04:32.643Z,10.20
2023-03-17T22:07:19.462Z,10.10
2023-03-17T22:10:07.382Z,10.10
2023-03-17T22:12:54.358Z,10.10
2023-03-17T22:15:40.888Z,10.10
2023-03-17T22:18:28.718Z,10.00
2023-03-17T22:21:15.577Z,10.00
2023-03-17T22:24:02.217Z,9.90
2023-03-17T22:26:49.219Z,9.80
2023-03-17T22:29:36.719Z,9.70
2023-03-17T22:32:23.410Z,9.90
2023-03-17T22:35:11.998Z,10.10
2023-03-17T22:37:58.644Z,10.20
2023-03-17T22:40:45.165Z,10.40
2023-03-17T22:43:32.254Z,10.50
2023-03-17T22:46:19.684Z,10.50
2023-03-17T22:49:06.702Z,10.40
2023-03-17T22:51:54.569Z,10.30
2023-03-17T22:54:41.383Z,10.20
2023-03-17T22:57:27.784Z,10.30
2023-03-17T23:00:17.327Z,10.20
2023-03-17T23:03:04.148Z,10.30
2023-03-17T23:05:54.077Z,10.30
2023-03-17T23:08:43.958Z,10.40
2023-03-17T23:11:30.731Z,10.50
2023-03-17T23:14:17.593Z,10.50
2023-03-17T23:17:04.096Z,10.60
2023-03-17T23:19:50.921Z,10.60
2023-03-17T23:22:37.938Z,10.60
2023-03-17T23:25:26.597Z,10.50
2023-03-17T23:28:15.515Z,10.60
2023-03-17T23:31:02.801Z,10.50
2023-03-17T23:33:50.457Z,10.50
2023-03-17T23:36:40.058Z,10.50
2023-03-17T23:39:26.458Z,10.30
2023-03-17T23:42:14.357Z,10.10
2023-03-17T23:45:01.982Z,9.90
2023-03-17T23:47:48.761Z,9.90
2023-03-17T23:50:35.498Z,9.90
2023-03-17T23:53:23.445Z,9.70
2023-03-17T23:56:12.973Z,9.60
2023-03-17T23:59:01.587Z,9.50
